Time;durP1;ratioP1;P1;durP2;ratioP2;P2;SDS_P1;SDS_P2;PMS_P1;PMS_P2;Temp;Humidity;BMP_temperature;BMP_pressure;BME280_temperature;BME280_humidity;BME280_pressure;Samples;Min_cycle;Max_cycle;Signal;HPM_P1;HPM_P2
2023/08/29 00:01:47;;;;;;;932.25;787.95;;;;;;;;;;5084046;28;20181;-58
2023/08/29 00:04:14;;;;;;;930.33;736.15;;;;;;;;;;5082247;28;20717;-58
2023/08/29 00:06:39;;;;;;;927.47;740.83;;;;;;;;;;5081907;28;20028;-59
2023/08/29 00:09:04;;;;;;;932.72;790.58;;;;;;;;;;5082695;28;20469;-58
2023/08/29 00:11:30;;;;;;;923.22;730.78;;;;;;;;;;5083893;28;20055;-58
2023/08/29 00:13:56;;;;;;;925.33;765.95;;;;;;;;;;5081079;28;20440;-58
2023/08/29 00:16:21;;;;;;;928.47;761.97;;;;;;;;;;5082407;28;20020;-57
2023/08/29 00:18:46;;;;;;;925.30;725.25;;;;;;;;;;5081147;28;20023;-59
2023/08/29 00:21:12;;;;;;;931.30;775.07;;;;;;;;;;5083049;28;20020;-57
2023/08/29 00:23:37;;;;;;;921.95;746.28;;;;;;;;;;5078752;28;20272;-57
2023/08/29 00:26:03;;;;;;;917.47;693.10;;;;;;;;;;5065005;28;20519;-58
2023/08/29 00:28:28;;;;;;;919.20;712.55;;;;;;;;;;5082566;28;20067;-58
2023/08/29 00:30:54;;;;;;;925.05;777.45;;;;;;;;;;5084941;28;20020;-58
2023/08/29 00:33:19;;;;;;;894.25;690.03;;;;;;;;;;5081937;28;20521;-58
2023/08/29 00:35:46;;;;;;;890.87;673.67;;;;;;;;;;5084833;28;20384;-58
2023/08/29 00:38:11;;;;;;;891.83;676.45;;;;;;;;;;5082762;28;20265;-57
2023/08/29 00:40:37;;;;;;;905.10;702.53;;;;;;;;;;5082446;28;20031;-58
2023/08/29 00:43:05;;;;;;;894.20;675.90;;;;;;;;;;5081296;28;20036;-59
2023/08/29 00:45:32;;;;;;;898.33;691.00;;;;;;;;;;5084685;28;20035;-58
2023/08/29 00:47:58;;;;;;;890.25;663.88;;;;;;;;;;5083832;28;20073;-58
2023/08/29 00:50:23;;;;;;;881.33;624.40;;;;;;;;;;5084771;28;20100;-59
2023/08/29 00:52:50;;;;;;;884.72;641.55;;;;;;;;;;5081758;28;20048;-59
2023/08/29 00:55:15;;;;;;;916.67;738.38;;;;;;;;;;5084349;28;20039;-56
2023/08/29 00:57:41;;;;;;;916.30;666.75;;;;;;;;;;5083311;28;20036;-56
2023/08/29 01:00:06;;;;;;;915.03;676.10;;;;;;;;;;5084729;28;20714;-57
2023/08/29 01:02:31;;;;;;;902.30;695.17;;;;;;;;;;5082178;28;20348;-58
2023/08/29 01:04:57;;;;;;;912.55;680.72;;;;;;;;;;5081344;28;20028;-58
2023/08/29 01:07:23;;;;;;;913.78;680.15;;;;;;;;;;5082155;28;20012;-59
2023/08/29 01:09:48;;;;;;;920.13;728.28;;;;;;;;;;5083350;28;20024;-58
2023/08/29 01:12:17;;;;;;;910.50;678.28;;;;;;;;;;5082372;28;20482;-58
2023/08/29 01:15:03;;;;;;;903.17;667.28;;;;;;;;;;5084017;28;20115;-58
2023/08/29 01:17:31;;;;;;;920.78;677.80;;;;;;;;;;5079482;28;20016;-58
2023/08/29 01:19:58;;;;;;;917.83;668.65;;;;;;;;;;5082045;28;20491;-59
2023/08/29 01:22:34;;;;;;;907.53;654.08;;;;;;;;;;5081620;28;20028;-57
2023/08/29 01:25:22;;;;;;;909.15;675.38;;;;;;;;;;5081194;28;20056;-58
2023/08/29 01:27:48;;;;;;;911.13;655.08;;;;;;;;;;5039022;28;20025;-57
2023/08/29 01:30:14;;;;;;;900.42;630.53;;;;;;;;;;5040686;28;20035;-58
2023/08/29 01:32:40;;;;;;;908.15;649.75;;;;;;;;;;5022192;28;20037;-58
2023/08/29 01:35:06;;;;;;;902.58;624.42;;;;;;;;;;5040374;28;20020;-58
2023/08/29 01:37:31;;;;;;;913.22;667.35;;;;;;;;;;5039183;28;20075;-56
2023/08/29 01:39:56;;;;;;;905.50;652.10;;;;;;;;;;5038817;28;20081;-58
2023/08/29 01:42:21;;;;;;;915.63;665.90;;;;;;;;;;5039497;28;20270;-59
2023/08/29 01:44:47;;;;;;;905.22;664.38;;;;;;;;;;5038150;28;21009;-56
2023/08/29 01:47:12;;;;;;;907.40;656.35;;;;;;;;;;5039032;28;20021;-58
2023/08/29 01:49:38;;;;;;;899.45;638.75;;;;;;;;;;5040009;28;20483;-58
2023/08/29 01:52:04;;;;;;;912.15;640.05;;;;;;;;;;5039062;28;20052;-57
2023/08/29 01:54:29;;;;;;;927.88;673.50;;;;;;;;;;5039907;28;20040;-58
2023/08/29 01:56:54;;;;;;;898.15;641.22;;;;;;;;;;5039249;28;20687;-58
2023/08/29 01:59:20;;;;;;;865.63;587.10;;;;;;;;;;5039273;28;20074;-56
2023/08/29 02:01:46;;;;;;;855.67;567.60;;;;;;;;;;5039261;28;20021;-58
2023/08/29 02:04:11;;;;;;;867.08;588.47;;;;;;;;;;5047940;28;20040;-57
2023/08/29 02:06:36;;;;;;;856.13;567.67;;;;;;;;;;5072610;28;20024;-56
2023/08/29 02:09:01;;;;;;;860.90;570.78;;;;;;;;;;5082344;28;20096;-58
2023/08/29 02:11:27;;;;;;;857.25;549.25;;;;;;;;;;5081453;28;20028;-56
2023/08/29 02:13:52;;;;;;;871.63;609.72;;;;;;;;;;5078812;28;20040;-59
2023/08/29 02:16:18;;;;;;;863.92;575.65;;;;;;;;;;5076664;28;20024;-55
2023/08/29 02:18:44;;;;;;;875.40;610.67;;;;;;;;;;5079575;28;20028;-57
2023/08/29 02:21:09;;;;;;;894.90;637.67;;;;;;;;;;5081487;28;20114;-56
2023/08/29 02:23:34;;;;;;;863.78;595.95;;;;;;;;;;5080677;28;20031;-57
2023/08/29 02:26:00;;;;;;;859.58;574.83;;;;;;;;;;5081880;28;20117;-58
2023/08/29 02:28:26;;;;;;;863.97;592.55;;;;;;;;;;5079710;28;20044;-58
2023/08/29 02:30:51;;;;;;;893.63;644.58;;;;;;;;;;5081474;28;20125;-59
2023/08/29 02:33:16;;;;;;;875.22;617.33;;;;;;;;;;5081047;28;20040;-57
2023/08/29 02:35:42;;;;;;;836.65;523.65;;;;;;;;;;5082668;28;20016;-58
2023/08/29 02:38:07;;;;;;;862.15;577.83;;;;;;;;;;5081921;28;20098;-58
2023/08/29 02:40:32;;;;;;;875.77;611.60;;;;;;;;;;5081971;28;20178;-56
2023/08/29 02:42:58;;;;;;;885.67;632.65;;;;;;;;;;5080143;28;20637;-59
2023/08/29 02:45:23;;;;;;;865.17;591.33;;;;;;;;;;5082743;28;20030;-58
2023/08/29 02:47:48;;;;;;;883.03;624.45;;;;;;;;;;5078783;28;20393;-59
2023/08/29 02:50:13;;;;;;;865.03;601.58;;;;;;;;;;5080821;28;20068;-58
2023/08/29 02:52:39;;;;;;;866.70;608.95;;;;;;;;;;5080327;28;20048;-59
2023/08/29 02:55:04;;;;;;;851.63;542.67;;;;;;;;;;5082647;28;20028;-57
2023/08/29 02:57:29;;;;;;;846.65;551.08;;;;;;;;;;5084513;28;20016;-57
2023/08/29 02:59:55;;;;;;;857.83;551.45;;;;;;;;;;5087765;28;20488;-57
2023/08/29 03:02:20;;;;;;;856.28;560.08;;;;;;;;;;5087100;28;20031;-58
2023/08/29 03:04:45;;;;;;;854.58;560.80;;;;;;;;;;5086727;28;20027;-58
2023/08/29 03:07:10;;;;;;;865.30;593.78;;;;;;;;;;5086175;28;20459;-58
2023/08/29 03:09:36;;;;;;;857.35;562.33;;;;;;;;;;5087616;28;20031;-58
2023/08/29 03:12:02;;;;;;;848.28;546.97;;;;;;;;;;5087236;28;20020;-57
2023/08/29 03:14:27;;;;;;;863.33;587.63;;;;;;;;;;5088977;28;20423;-58
2023/08/29 03:16:53;;;;;;;874.88;617.67;;;;;;;;;;5086820;28;20032;-58
2023/08/29 03:19:18;;;;;;;847.93;544.57;;;;;;;;;;5089198;28;20052;-58
2023/08/29 03:21:43;;;;;;;849.47;548.95;;;;;;;;;;5085046;28;20263;-57
2023/08/29 03:24:08;;;;;;;847.40;543.30;;;;;;;;;;5089121;28;20042;-58
2023/08/29 03:26:34;;;;;;;846.50;547.80;;;;;;;;;;5088338;28;20111;-58
2023/08/29 03:28:59;;;;;;;848.25;545.42;;;;;;;;;;5087567;28;20253;-58
2023/08/29 03:31:25;;;;;;;850.72;538.38;;;;;;;;;;5088859;28;20461;-58
2023/08/29 03:33:50;;;;;;;849.42;561.55;;;;;;;;;;5086960;28;20616;-58
2023/08/29 03:36:15;;;;;;;846.22;545.28;;;;;;;;;;5088946;28;20085;-58
2023/08/29 03:38:42;;;;;;;850.28;562.45;;;;;;;;;;5086402;28;20020;-59
2023/08/29 03:41:07;;;;;;;897.97;629.22;;;;;;;;;;5088469;28;20081;-59
2023/08/29 03:43:33;;;;;;;860.58;584.95;;;;;;;;;;5086635;28;20759;-58
2023/08/29 03:45:59;;;;;;;872.40;597.83;;;;;;;;;;5086213;28;20020;-58
2023/08/29 03:48:24;;;;;;;854.72;542.45;;;;;;;;;;5087688;28;20078;-58
2023/08/29 03:50:50;;;;;;;898.22;639.38;;;;;;;;;;5087154;28;20027;-58
2023/08/29 03:53:15;;;;;;;835.17;519.92;;;;;;;;;;5086117;28;20059;-58
2023/08/29 03:55:40;;;;;;;886.55;627.80;;;;;;;;;;5088010;28;20055;-58
2023/08/29 03:58:06;;;;;;;836.88;529.70;;;;;;;;;;5083799;28;20107;-59
2023/08/29 04:00:32;;;;;;;881.65;617.05;;;;;;;;;;5084646;28;20073;-58
2023/08/29 04:02:59;;;;;;;884.80;585.85;;;;;;;;;;5085476;28;20093;-58
2023/08/29 04:05:24;;;;;;;889.80;592.45;;;;;;;;;;5086336;28;20377;-57
2023/08/29 04:07:50;;;;;;;892.03;610.45;;;;;;;;;;5073931;28;20033;-54
2023/08/29 04:10:15;;;;;;;858.03;558.55;;;;;;;;;;5064591;28;20107;-58
2023/08/29 04:12:41;;;;;;;847.20;529.20;;;;;;;;;;5073761;28;20032;-58
2023/08/29 04:15:07;;;;;;;850.85;532.78;;;;;;;;;;5084665;28;20032;-58
2023/08/29 04:17:32;;;;;;;851.15;540.35;;;;;;;;;;5083211;28;20742;-57
2023/08/29 04:19:58;;;;;;;831.50;482.20;;;;;;;;;;5085126;28;20012;-58
2023/08/29 04:22:23;;;;;;;839.15;516.17;;;;;;;;;;5080768;28;20020;-57
2023/08/29 04:24:49;;;;;;;849.25;542.80;;;;;;;;;;5084135;28;20026;-58
2023/08/29 04:27:14;;;;;;;894.38;639.28;;;;;;;;;;5080219;28;20366;-57
2023/08/29 04:29:40;;;;;;;846.83;506.73;;;;;;;;;;5082950;28;20027;-57
2023/08/29 04:32:05;;;;;;;877.78;601.15;;;;;;;;;;5081637;28;20513;-56
2023/08/29 04:34:30;;;;;;;897.90;650.78;;;;;;;;;;5082001;28;20035;-58
2023/08/29 04:36:56;;;;;;;888.97;622.67;;;;;;;;;;5079912;28;20448;-59
2023/08/29 04:39:21;;;;;;;896.17;636.83;;;;;;;;;;5081728;28;20024;-58
2023/08/29 04:41:46;;;;;;;857.22;541.33;;;;;;;;;;5081494;28;20025;-59
2023/08/29 04:44:11;;;;;;;892.30;625.30;;;;;;;;;;5084226;28;20095;-56
2023/08/29 04:46:37;;;;;;;863.50;564.90;;;;;;;;;;5083618;28;20035;-58
2023/08/29 04:49:03;;;;;;;871.65;574.83;;;;;;;;;;5084707;28;20686;-58
2023/08/29 04:51:29;;;;;;;905.53;648.15;;;;;;;;;;5084381;28;20028;-57
2023/08/29 04:53:54;;;;;;;919.80;677.33;;;;;;;;;;5076077;28;20108;-58
2023/08/29 04:56:19;;;;;;;876.97;611.97;;;;;;;;;;5083537;28;20052;-59
2023/08/29 04:58:44;;;;;;;915.90;668.90;;;;;;;;;;5081505;28;20842;-56
2023/08/29 05:01:10;;;;;;;938.03;671.28;;;;;;;;;;5084820;28;20023;-59
2023/08/29 05:03:35;;;;;;;928.45;675.45;;;;;;;;;;5082554;28;20159;-55
2023/08/29 05:06:00;;;;;;;905.70;626.00;;;;;;;;;;5081106;28;20658;-58
2023/08/29 05:08:25;;;;;;;910.77;658.63;;;;;;;;;;5081882;28;20047;-58
2023/08/29 05:10:51;;;;;;;899.50;624.30;;;;;;;;;;5081256;28;20245;-58
2023/08/29 05:13:16;;;;;;;904.85;627.42;;;;;;;;;;5081087;28;20800;-54
2023/08/29 05:15:41;;;;;;;907.85;646.55;;;;;;;;;;5079633;28;20052;-58
2023/08/29 05:18:07;;;;;;;902.40;634.00;;;;;;;;;;5079875;28;20047;-59
2023/08/29 05:20:32;;;;;;;885.38;615.75;;;;;;;;;;5081848;28;20212;-58
2023/08/29 05:22:57;;;;;;;865.83;593.07;;;;;;;;;;5080767;28;20170;-59
2023/08/29 05:25:23;;;;;;;875.90;607.60;;;;;;;;;;5081524;28;20256;-58
2023/08/29 05:27:48;;;;;;;876.30;606.92;;;;;;;;;;5076752;28;20025;-56
2023/08/29 05:30:13;;;;;;;876.20;608.03;;;;;;;;;;5080782;28;20031;-57
2023/08/29 05:32:39;;;;;;;879.08;629.53;;;;;;;;;;5080360;28;20060;-57
2023/08/29 05:35:04;;;;;;;881.28;626.80;;;;;;;;;;5080569;28;20537;-58
2023/08/29 05:37:30;;;;;;;882.70;633.45;;;;;;;;;;5082228;28;20023;-59
2023/08/29 05:39:55;;;;;;;885.60;619.25;;;;;;;;;;5082258;28;20031;-59
2023/08/29 05:42:21;;;;;;;901.95;677.38;;;;;;;;;;5081084;28;20031;-59
2023/08/29 05:44:46;;;;;;;889.97;651.95;;;;;;;;;;5082391;28;20481;-58
2023/08/29 05:47:11;;;;;;;900.72;682.10;;;;;;;;;;5078485;28;20024;-59
2023/08/29 05:49:37;;;;;;;891.53;671.33;;;;;;;;;;5062991;28;20016;-59
2023/08/29 05:52:02;;;;;;;889.67;670.67;;;;;;;;;;5063958;28;20072;-58
2023/08/29 05:54:28;;;;;;;903.92;682.17;;;;;;;;;;5080487;28;20040;-57
2023/08/29 05:56:53;;;;;;;913.28;682.42;;;;;;;;;;5078790;28;20469;-58
2023/08/29 05:59:18;;;;;;;903.78;654.38;;;;;;;;;;5078521;28;20020;-58
2023/08/29 06:01:44;;;;;;;919.10;691.00;;;;;;;;;;5079175;28;20031;-60
2023/08/29 06:04:09;;;;;;;892.35;662.65;;;;;;;;;;5079528;28;20621;-57
2023/08/29 06:06:35;;;;;;;876.90;630.95;;;;;;;;;;5080252;28;20533;-55
2023/08/29 06:09:02;;;;;;;897.67;659.45;;;;;;;;;;5081290;28;20110;-58
2023/08/29 06:11:29;;;;;;;895.90;675.05;;;;;;;;;;5082859;28;20016;-58
2023/08/29 06:13:54;;;;;;;887.60;646.80;;;;;;;;;;5079936;28;20032;-58
2023/08/29 06:16:19;;;;;;;874.17;620.53;;;;;;;;;;5082063;28;20024;-59
2023/08/29 06:18:44;;;;;;;877.58;606.17;;;;;;;;;;5080347;28;20513;-59
2023/08/29 06:21:10;;;;;;;882.55;625.40;;;;;;;;;;5082659;28;20032;-57
2023/08/29 06:23:35;;;;;;;883.03;607.55;;;;;;;;;;5080286;28;20516;-55
2023/08/29 06:26:00;;;;;;;891.50;626.28;;;;;;;;;;5078041;28;20107;-58
2023/08/29 06:28:26;;;;;;;882.08;620.70;;;;;;;;;;5076437;28;20726;-58
2023/08/29 06:30:52;;;;;;;887.47;615.83;;;;;;;;;;5077316;28;20077;-56
2023/08/29 06:33:18;;;;;;;935.95;635.47;;;;;;;;;;5080080;28;20612;-57
2023/08/29 06:35:46;;;;;;;882.15;614.42;;;;;;;;;;5079798;28;20035;-57
2023/08/29 06:38:12;;;;;;;889.45;627.45;;;;;;;;;;5079539;28;20093;-58
2023/08/29 06:40:37;;;;;;;867.80;569.78;;;;;;;;;;5094398;28;20479;-55
2023/08/29 06:43:03;;;;;;;872.63;603.28;;;;;;;;;;5067550;28;20058;-58
2023/08/29 06:45:29;;;;;;;879.35;600.85;;;;;;;;;;5081115;28;20157;-59
2023/08/29 06:47:54;;;;;;;873.45;601.50;;;;;;;;;;5083460;28;20047;-59
2023/08/29 06:50:20;;;;;;;903.47;664.97;;;;;;;;;;5067277;28;20741;-58
2023/08/29 06:52:45;;;;;;;873.20;590.97;;;;;;;;;;5077292;28;20096;-59
2023/08/29 06:55:11;;;;;;;893.33;638.83;;;;;;;;;;5080079;28;20477;-57
2023/08/29 06:57:36;;;;;;;888.53;636.13;;;;;;;;;;5078479;28;20024;-58
2023/08/29 07:00:03;;;;;;;877.47;596.47;;;;;;;;;;5081268;28;20020;-57
2023/08/29 07:02:31;;;;;;;918.10;656.28;;;;;;;;;;5079252;28;20177;-56
2023/08/29 07:04:57;;;;;;;909.23;654.57;;;;;;;;;;5076217;28;20040;-57
2023/08/29 07:07:22;;;;;;;909.40;649.15;;;;;;;;;;5078351;28;20274;-59
2023/08/29 07:09:48;;;;;;;883.40;622.38;;;;;;;;;;5078390;28;20035;-54
2023/08/29 07:12:13;;;;;;;902.85;667.72;;;;;;;;;;5077304;28;20396;-57
2023/08/29 07:14:38;;;;;;;873.63;620.55;;;;;;;;;;5078440;28;20738;-59
2023/08/29 07:17:04;;;;;;;883.10;629.85;;;;;;;;;;5076903;28;20081;-55
2023/08/29 07:19:30;;;;;;;878.15;624.05;;;;;;;;;;5079369;28;20020;-54
2023/08/29 07:21:56;;;;;;;900.28;647.17;;;;;;;;;;5079691;28;20038;-55
2023/08/29 07:24:21;;;;;;;916.25;659.05;;;;;;;;;;5078815;28;20055;-57
2023/08/29 07:26:47;;;;;;;888.33;621.85;;;;;;;;;;5078429;28;20043;-57
2023/08/29 07:29:12;;;;;;;884.67;625.25;;;;;;;;;;5079078;28;20016;-57
2023/08/29 07:31:37;;;;;;;885.00;635.97;;;;;;;;;;5080705;28;20107;-56
2023/08/29 07:34:03;;;;;;;918.47;678.67;;;;;;;;;;5078844;28;20024;-56
2023/08/29 07:36:28;;;;;;;971.47;703.58;;;;;;;;;;5078649;28;20280;-55
2023/08/29 07:38:53;;;;;;;924.60;681.13;;;;;;;;;;5076870;28;20027;-55
2023/08/29 07:41:18;;;;;;;906.17;652.20;;;;;;;;;;5078515;28;20129;-54
2023/08/29 07:43:44;;;;;;;891.75;641.28;;;;;;;;;;5077512;28;20253;-56
2023/08/29 07:46:09;;;;;;;885.40;645.95;;;;;;;;;;5080430;28;20023;-53
2023/08/29 07:48:34;;;;;;;890.35;639.97;;;;;;;;;;5082298;28;20026;-56
2023/08/29 07:51:00;;;;;;;908.35;662.80;;;;;;;;;;5077921;28;20032;-56
2023/08/29 07:53:25;;;;;;;891.33;646.80;;;;;;;;;;5082175;28;20903;-55
2023/08/29 07:55:50;;;;;;;924.85;699.58;;;;;;;;;;5082661;28;20063;-56
2023/08/29 07:58:16;;;;;;;876.65;611.95;;;;;;;;;;5082918;28;20038;-57
2023/08/29 08:00:42;;;;;;;902.88;686.50;;;;;;;;;;5084310;28;20028;-57
2023/08/29 08:03:08;;;;;;;869.10;587.65;;;;;;;;;;5082853;28;20031;-56
2023/08/29 08:05:33;;;;;;;907.88;680.75;;;;;;;;;;5082684;28;20122;-57
2023/08/29 08:08:00;;;;;;;870.97;596.15;;;;;;;;;;5096971;28;20393;-55
2023/08/29 08:10:25;;;;;;;884.20;613.97;;;;;;;;;;5085019;28;20016;-57
2023/08/29 08:12:50;;;;;;;868.20;573.72;;;;;;;;;;5081445;28;20036;-56
2023/08/29 08:15:20;;;;;;;866.60;573.80;;;;;;;;;;5083567;28;20111;-57
2023/08/29 08:17:45;;;;;;;875.33;584.05;;;;;;;;;;5082877;28;20271;-56
2023/08/29 08:20:12;;;;;;;881.10;558.55;;;;;;;;;;5080394;28;20440;-56
2023/08/29 08:22:38;;;;;;;865.05;541.17;;;;;;;;;;5082659;28;20048;-56
2023/08/29 08:25:04;;;;;;;868.20;529.20;;;;;;;;;;5083479;28;20626;-55
2023/08/29 08:27:29;;;;;;;868.03;520.78;;;;;;;;;;5079099;28;20069;-56
2023/08/29 08:29:55;;;;;;;866.55;529.95;;;;;;;;;;5062914;28;20071;-55
2023/08/29 08:32:20;;;;;;;867.38;525.22;;;;;;;;;;5073976;28;20012;-57
2023/08/29 08:34:46;;;;;;;860.50;508.23;;;;;;;;;;5080183;28;20109;-55
2023/08/29 08:37:11;;;;;;;861.15;537.13;;;;;;;;;;5079942;28;20013;-56
2023/08/29 08:39:36;;;;;;;848.28;488.45;;;;;;;;;;5084043;28;20698;-54
2023/08/29 08:42:02;;;;;;;843.17;501.38;;;;;;;;;;5066593;28;20027;-57
2023/08/29 08:44:29;;;;;;;858.25;540.33;;;;;;;;;;5078448;28;20028;-55
2023/08/29 08:46:54;;;;;;;853.83;505.05;;;;;;;;;;5079542;28;20050;-54
2023/08/29 08:49:20;;;;;;;839.50;478.85;;;;;;;;;;5081028;28;20469;-54
2023/08/29 08:51:46;;;;;;;845.20;475.05;;;;;;;;;;5094362;28;20089;-54
2023/08/29 08:54:13;;;;;;;833.60;466.25;;;;;;;;;;5074920;28;20032;-56
2023/08/29 08:56:40;;;;;;;834.30;475.17;;;;;;;;;;5080195;28;20055;-56
2023/08/29 08:59:06;;;;;;;834.35;459.92;;;;;;;;;;5080354;28;20027;-57
2023/08/29 09:01:31;;;;;;;847.60;482.15;;;;;;;;;;5075077;28;20031;-54
2023/08/29 09:03:56;;;;;;;848.40;477.02;;;;;;;;;;5067954;28;21301;-57
2023/08/29 09:06:22;;;;;;;832.38;450.92;;;;;;;;;;5075696;28;20141;-56
2023/08/29 09:08:47;;;;;;;845.05;498.50;;;;;;;;;;5067971;28;20082;-56
2023/08/29 09:11:16;;;;;;;879.42;573.75;;;;;;;;;;5074191;28;20066;-55
2023/08/29 09:13:45;;;;;;;875.08;569.58;;;;;;;;;;5076559;28;20036;-56
2023/08/29 09:16:10;;;;;;;837.20;472.48;;;;;;;;;;5071287;28;20101;-54
2023/08/29 09:18:36;;;;;;;845.63;510.95;;;;;;;;;;5081333;28;20136;-57
2023/08/29 09:21:04;;;;;;;854.28;535.83;;;;;;;;;;5074681;28;20642;-54
2023/08/29 09:23:30;;;;;;;866.00;552.92;;;;;;;;;;5079441;28;20481;-56
2023/08/29 09:25:56;;;;;;;865.33;546.58;;;;;;;;;;5081352;28;20040;-56
2023/08/29 09:28:25;;;;;;;864.80;566.67;;;;;;;;;;5082902;28;20051;-57
2023/08/29 09:30:50;;;;;;;905.77;657.37;;;;;;;;;;5082985;28;20027;-54
2023/08/29 09:33:18;;;;;;;859.70;551.40;;;;;;;;;;5081358;28;20833;-56
2023/08/29 09:35:43;;;;;;;834.58;498.10;;;;;;;;;;5081595;28;20680;-55
2023/08/29 09:38:10;;;;;;;856.28;539.83;;;;;;;;;;5080175;28;20027;-56
2023/08/29 09:40:44;;;;;;;861.75;570.30;;;;;;;;;;5082786;28;20580;-52
2023/08/29 09:43:09;;;;;;;844.35;514.60;;;;;;;;;;5073615;28;20028;-53
2023/08/29 09:45:37;;;;;;;856.42;533.70;;;;;;;;;;5082266;28;20026;-54
2023/08/29 09:48:03;;;;;;;876.67;607.95;;;;;;;;;;5080925;28;20022;-53
2023/08/29 09:50:28;;;;;;;907.10;660.90;;;;;;;;;;5065213;28;20025;-54
2023/08/29 09:52:54;;;;;;;895.22;643.08;;;;;;;;;;5080128;28;20589;-56
2023/08/29 09:55:20;;;;;;;903.30;645.25;;;;;;;;;;5083021;28;20046;-56
2023/08/29 09:57:48;;;;;;;893.97;616.15;;;;;;;;;;5081073;28;20032;-56
2023/08/29 10:00:14;;;;;;;894.53;617.43;;;;;;;;;;5083012;28;20059;-56
2023/08/29 10:02:40;;;;;;;904.38;641.05;;;;;;;;;;5081248;28;20314;-52
2023/08/29 10:05:09;;;;;;;884.38;613.53;;;;;;;;;;5081457;28;20028;-52
2023/08/29 10:07:54;;;;;;;934.97;710.83;;;;;;;;;;5079834;28;20107;-53
2023/08/29 10:10:20;;;;;;;924.22;696.63;;;;;;;;;;5081392;28;20036;-56
2023/08/29 10:12:45;;;;;;;934.05;728.65;;;;;;;;;;5080222;28;20040;-56
2023/08/29 10:15:11;;;;;;;941.75;740.30;;;;;;;;;;5081418;28;20077;-55
2023/08/29 10:17:36;;;;;;;948.47;740.22;;;;;;;;;;5081665;28;20663;-55
2023/08/29 10:20:10;;;;;;;943.75;763.47;;;;;;;;;;5081576;28;20028;-56
2023/08/29 10:22:36;;;;;;;951.10;764.25;;;;;;;;;;5078188;28;20016;-56
2023/08/29 10:25:03;;;;;;;954.67;766.63;;;;;;;;;;5080442;28;20020;-55
2023/08/29 10:27:28;;;;;;;948.60;773.25;;;;;;;;;;5080039;28;20698;-56
2023/08/29 10:29:53;;;;;;;945.87;751.90;;;;;;;;;;5079408;28;20020;-55
2023/08/29 10:32:19;;;;;;;934.95;759.25;;;;;;;;;;5077238;28;20351;-56
2023/08/29 10:34:44;;;;;;;963.00;784.75;;;;;;;;;;5078471;28;20028;-57
2023/08/29 10:37:19;;;;;;;965.15;787.53;;;;;;;;;;5075359;28;20035;-57
2023/08/29 10:39:45;;;;;;;967.28;789.28;;;;;;;;;;5078421;28;20085;-56
2023/08/29 10:42:13;;;;;;;976.85;798.53;;;;;;;;;;5094206;28;20344;-56
2023/08/29 10:44:41;;;;;;;948.47;778.47;;;;;;;;;;5081913;28;20140;-57
2023/08/29 10:47:30;;;;;;;959.00;792.23;;;;;;;;;;5080841;28;20031;-56
2023/08/29 10:50:00;;;;;;;959.38;801.85;;;;;;;;;;5075047;28;20027;-56
2023/08/29 10:52:40;;;;;;;984.67;817.47;;;;;;;;;;5068038;28;20059;-55
2023/08/29 10:55:08;;;;;;;;;;;;;;;;;;5068776;28;20029;-60
2023/08/29 10:57:34;;;;;;;979.65;819.42;;;;;;;;;;5081261;28;19916;-55
2023/08/29 10:59:59;;;;;;;988.33;826.63;;;;;;;;;;5081498;28;20088;-58
2023/08/29 11:02:25;;;;;;;999.75;842.92;;;;;;;;;;5079593;28;20256;-56
2023/08/29 11:04:51;;;;;;;987.20;868.45;;;;;;;;;;5079738;28;20032;-56
2023/08/29 11:07:25;;;;;;;1006.75;880.15;;;;;;;;;;5080042;28;20734;-57
2023/08/29 11:10:10;;;;;;;1008.38;843.47;;;;;;;;;;5082257;28;20021;-58
2023/08/29 11:12:35;;;;;;;1008.63;844.17;;;;;;;;;;5080372;28;20115;-57
2023/08/29 11:15:00;;;;;;;978.10;856.80;;;;;;;;;;5081269;28;20131;-57
2023/08/29 11:17:26;;;;;;;978.95;862.47;;;;;;;;;;5079324;28;20032;-55
2023/08/29 11:19:52;;;;;;;999.38;827.47;;;;;;;;;;5085242;28;20122;-56
2023/08/29 11:22:19;;;;;;;1002.55;844.63;;;;;;;;;;5082975;28;20024;-58
2023/08/29 11:24:45;;;;;;;980.05;857.13;;;;;;;;;;5082955;28;20028;-57
2023/08/29 11:27:15;;;;;;;971.13;844.60;;;;;;;;;;5083229;28;20016;-57
2023/08/29 11:29:41;;;;;;;996.53;845.35;;;;;;;;;;5083127;28;20446;-58
2023/08/29 11:32:06;;;;;;;995.27;839.87;;;;;;;;;;5083802;28;20103;-57
2023/08/29 11:34:34;;;;;;;997.27;841.23;;;;;;;;;;5084485;28;20295;-58
2023/08/29 11:36:59;;;;;;;941.47;779.00;;;;;;;;;;5084985;28;21098;-58
2023/08/29 11:39:25;;;;;;;979.70;844.97;;;;;;;;;;5082187;28;20699;-57
2023/08/29 11:41:50;;;;;;;990.05;880.95;;;;;;;;;;5083711;28;20043;-53
2023/08/29 11:44:16;;;;;;;976.00;854.80;;;;;;;;;;5076649;28;20177;-57
2023/08/29 11:46:43;;;;;;;991.28;832.47;;;;;;;;;;5082357;28;20476;-58
2023/08/29 11:49:15;;;;;;;999.40;819.33;;;;;;;;;;5074177;28;20028;-58
2023/08/29 11:51:40;;;;;;;935.35;751.90;;;;;;;;;;5077347;28;20028;-56
2023/08/29 11:54:26;;;;;;;989.45;809.15;;;;;;;;;;5083897;28;20418;-57
2023/08/29 11:56:55;;;;;;;963.30;795.90;;;;;;;;;;5060460;28;20036;-58
2023/08/29 11:59:20;;;;;;;976.95;808.38;;;;;;;;;;5061718;28;20036;-58
2023/08/29 12:01:46;;;;;;;965.47;804.33;;;;;;;;;;5059355;28;20532;-57
2023/08/29 12:04:11;;;;;;;962.67;799.37;;;;;;;;;;5060956;28;20273;-57
2023/08/29 12:06:36;;;;;;;958.08;801.85;;;;;;;;;;5059556;28;21005;-57
2023/08/29 12:09:03;;;;;;;964.10;813.80;;;;;;;;;;5061273;28;20466;-57
2023/08/29 12:11:40;;;;;;;967.45;809.85;;;;;;;;;;5019224;28;20038;-56
2023/08/29 12:14:07;;;;;;;976.08;814.35;;;;;;;;;;5016132;28;20037;-58
2023/08/29 12:16:33;;;;;;;972.17;801.08;;;;;;;;;;5011571;28;20073;-58
2023/08/29 12:19:05;;;;;;;968.05;803.63;;;;;;;;;;5010075;28;20809;-58
2023/08/29 12:21:30;;;;;;;965.55;787.45;;;;;;;;;;5014389;28;20410;-58
2023/08/29 12:24:07;;;;;;;959.30;779.57;;;;;;;;;;5014576;28;20029;-57
2023/08/29 12:26:33;;;;;;;968.35;792.05;;;;;;;;;;5017417;28;20266;-58
2023/08/29 12:28:58;;;;;;;907.97;719.75;;;;;;;;;;5018654;28;20060;-57
2023/08/29 12:31:23;;;;;;;903.33;712.97;;;;;;;;;;5012853;28;20225;-57
2023/08/29 12:33:48;;;;;;;903.57;715.93;;;;;;;;;;5019549;28;20513;-57
2023/08/29 12:36:14;;;;;;;902.72;712.22;;;;;;;;;;5035962;28;20345;-57
2023/08/29 12:38:39;;;;;;;904.20;702.22;;;;;;;;;;5033779;28;20470;-58
2023/08/29 12:41:04;;;;;;;894.33;800.63;;;;;;;;;;5033119;28;20029;-57
2023/08/29 12:43:29;;;;;;;883.75;787.17;;;;;;;;;;5087531;28;20302;-58
2023/08/29 12:45:55;;;;;;;902.25;712.72;;;;;;;;;;5081445;28;20015;-59
2023/08/29 12:48:20;;;;;;;900.28;703.22;;;;;;;;;;5075763;28;20158;-58
2023/08/29 12:50:46;;;;;;;903.63;708.15;;;;;;;;;;5074596;28;20039;-57
2023/08/29 12:53:11;;;;;;;902.75;702.20;;;;;;;;;;5075511;28;20052;-56
2023/08/29 12:55:36;;;;;;;909.05;732.25;;;;;;;;;;5067090;28;20109;-58
2023/08/29 12:58:04;;;;;;;902.80;690.20;;;;;;;;;;5066955;28;20119;-56
2023/08/29 13:00:29;;;;;;;896.10;698.30;;;;;;;;;;5076184;28;20291;-56
2023/08/29 13:02:54;;;;;;;888.25;688.70;;;;;;;;;;5094393;28;20131;-59
2023/08/29 13:05:20;;;;;;;894.10;697.45;;;;;;;;;;5079463;28;20024;-58
2023/08/29 13:07:45;;;;;;;899.63;694.65;;;;;;;;;;5076290;28;20048;-59
2023/08/29 13:10:11;;;;;;;894.47;688.13;;;;;;;;;;5078122;28;20081;-57
2023/08/29 13:12:37;;;;;;;896.78;691.63;;;;;;;;;;5077671;28;20032;-58
2023/08/29 13:15:05;;;;;;;897.67;693.17;;;;;;;;;;5069554;28;20093;-58
2023/08/29 13:17:31;;;;;;;894.92;688.95;;;;;;;;;;5072597;28;20020;-57
2023/08/29 13:19:57;;;;;;;888.80;681.75;;;;;;;;;;5083355;28;20024;-56
2023/08/29 13:22:23;;;;;;;906.03;670.78;;;;;;;;;;5069902;28;20050;-56
2023/08/29 13:24:48;;;;;;;906.55;680.25;;;;;;;;;;5065230;28;20032;-54
2023/08/29 13:27:13;;;;;;;918.00;683.88;;;;;;;;;;5079346;28;20047;-58
2023/08/29 13:29:38;;;;;;;933.53;711.58;;;;;;;;;;5081745;28;20469;-58
2023/08/29 13:32:04;;;;;;;921.20;693.37;;;;;;;;;;5073462;28;20016;-58
2023/08/29 13:34:29;;;;;;;919.45;666.85;;;;;;;;;;5067043;28;20796;-59
2023/08/29 13:36:54;;;;;;;913.47;667.15;;;;;;;;;;5080238;28;20042;-55
2023/08/29 13:39:20;;;;;;;911.93;647.33;;;;;;;;;;5076722;28;21970;-58
2023/08/29 13:41:45;;;;;;;899.28;611.88;;;;;;;;;;5066233;28;20252;-56
2023/08/29 13:44:11;;;;;;;920.40;685.88;;;;;;;;;;5068501;28;20781;-57
2023/08/29 13:46:36;;;;;;;870.47;612.60;;;;;;;;;;5069629;28;20024;-58